sensor_id;sensor_type;location;lat;lon;timestamp;temperature;humidity
22676;DHT22;12521;43.310;21.876;2022-07-23T00:00:35;23.9;81.0
22676;DHT22;12521;43.310;21.876;2022-07-23T00:05:12;23.6;82.0
22676;DHT22;12521;43.310;21.876;2022-07-23T00:09:49;23.6;82.0
22676;DHT22;12521;43.310;21.876;2022-07-23T00:14:26;23.4;83.0
22676;DHT22;12521;43.310;21.876;2022-07-23T00:19:02;23.4;83.0
22676;DHT22;12521;43.310;21.876;2022-07-23T00:23:39;23.3;84.0
22676;DHT22;12521;43.310;21.876;2022-07-23T00:28:15;23.3;84.0
22676;DHT22;12521;43.310;21.876;2022-07-23T00:32:55;23.2;84.0
22676;DHT22;12521;43.310;21.876;2022-07-23T00:37:36;23.2;84.0
22676;DHT22;12521;43.310;21.876;2022-07-23T00:42:13;23.1;85.0
22676;DHT22;12521;43.310;21.876;2022-07-23T00:46:53;23.1;85.0
22676;DHT22;12521;43.310;21.876;2022-07-23T00:51:34;23.1;85.0
22676;DHT22;12521;43.310;21.876;2022-07-23T00:56:11;23.0;85.0
22676;DHT22;12521;43.310;21.876;2022-07-23T01:00:48;23.0;85.0
22676;DHT22;12521;43.310;21.876;2022-07-23T01:05:26;22.9;86.0
22676;DHT22;12521;43.310;21.876;2022-07-23T01:10:05;22.9;86.0
22676;DHT22;12521;43.310;21.876;2022-07-23T01:14:45;22.8;86.0
22676;DHT22;12521;43.310;21.876;2022-07-23T01:19:31;22.8;86.0
22676;DHT22;12521;43.310;21.876;2022-07-23T01:24:09;22.6;87.0
22676;DHT22;12521;43.310;21.876;2022-07-23T01:28:49;22.6;87.0
22676;DHT22;12521;43.310;21.876;2022-07-23T01:33:26;22.5;87.0
22676;DHT22;12521;43.310;21.876;2022-07-23T01:38:04;22.5;87.0
22676;DHT22;12521;43.310;21.876;2022-07-23T01:42:41;22.4;88.0
22676;DHT22;12521;43.310;21.876;2022-07-23T01:47:19;22.4;88.0
22676;DHT22;12521;43.310;21.876;2022-07-23T01:51:56;22.4;88.0
22676;DHT22;12521;43.310;21.876;2022-07-23T01:56:34;22.2;89.0
22676;DHT22;12521;43.310;21.876;2022-07-23T02:01:11;22.2;89.0
22676;DHT22;12521;43.310;21.876;2022-07-23T02:05:48;22.1;89.0
22676;DHT22;12521;43.310;21.876;2022-07-23T02:10:27;22.1;89.0
22676;DHT22;12521;43.310;21.876;2022-07-23T02:15:07;22.0;90.0
22676;DHT22;12521;43.310;21.876;2022-07-23T02:19:46;22.0;90.0
22676;DHT22;12521;43.310;21.876;2022-07-23T02:24:23;21.8;91.0
22676;DHT22;12521;43.310;21.876;2022-07-23T02:29:00;21.8;91.0
22676;DHT22;12521;43.310;21.876;2022-07-23T02:33:39;21.6;91.0
22676;DHT22;12521;43.310;21.876;2022-07-23T02:38:16;21.6;91.0
22676;DHT22;12521;43.310;21.876;2022-07-23T02:42:53;21.5;92.0
22676;DHT22;12521;43.310;21.876;2022-07-23T02:47:30;21.5;92.0
22676;DHT22;12521;43.310;21.876;2022-07-23T02:52:06;21.5;92.0
22676;DHT22;12521;43.310;21.876;2022-07-23T02:56:44;21.3;93.0
22676;DHT22;12521;43.310;21.876;2022-07-23T03:01:21;21.3;93.0
22676;DHT22;12521;43.310;21.876;2022-07-23T03:05:57;21.2;93.0
22676;DHT22;12521;43.310;21.876;2022-07-23T03:10:33;21.2;93.0
22676;DHT22;12521;43.310;21.876;2022-07-23T03:15:10;21.1;93.0
22676;DHT22;12521;43.310;21.876;2022-07-23T03:19:46;21.1;93.0
22676;DHT22;12521;43.310;21.876;2022-07-23T03:24:22;21.0;92.0
22676;DHT22;12521;43.310;21.876;2022-07-23T03:28:58;21.0;92.0
22676;DHT22;12521;43.310;21.876;2022-07-23T03:33:35;20.9;92.0
22676;DHT22;12521;43.310;21.876;2022-07-23T03:38:12;20.9;92.0
22676;DHT22;12521;43.310;21.876;2022-07-23T03:42:50;20.8;93.0
22676;DHT22;12521;43.310;21.876;2022-07-23T03:47:27;20.8;93.0
22676;DHT22;12521;43.310;21.876;2022-07-23T03:52:05;20.8;93.0
22676;DHT22;12521;43.310;21.876;2022-07-23T03:56:42;20.8;93.0
22676;DHT22;12521;43.310;21.876;2022-07-23T04:01:19;20.8;93.0
22676;DHT22;12521;43.310;21.876;2022-07-23T04:05:56;20.8;93.0
22676;DHT22;12521;43.310;21.876;2022-07-23T04:10:33;20.8;93.0
22676;DHT22;12521;43.310;21.876;2022-07-23T04:15:10;20.7;93.0
22676;DHT22;12521;43.310;21.876;2022-07-23T04:19:48;20.7;93.0
22676;DHT22;12521;43.310;21.876;2022-07-23T04:24:25;20.7;93.0
22676;DHT22;12521;43.310;21.876;2022-07-23T04:29:01;20.7;93.0
22676;DHT22;12521;43.310;21.876;2022-07-23T04:33:38;20.7;94.0
22676;DHT22;12521;43.310;21.876;2022-07-23T04:38:15;20.7;94.0
22676;DHT22;12521;43.310;21.876;2022-07-23T04:42:53;20.9;93.0
22676;DHT22;12521;43.310;21.876;2022-07-23T04:47:32;20.9;93.0
22676;DHT22;12521;43.310;21.876;2022-07-23T04:52:09;20.9;93.0
22676;DHT22;12521;43.310;21.876;2022-07-23T04:56:46;21.1;93.0
22676;DHT22;12521;43.310;21.876;2022-07-23T05:01:23;21.1;93.0
22676;DHT22;12521;43.310;21.876;2022-07-23T05:06:00;21.2;94.0
22676;DHT22;12521;43.310;21.876;2022-07-23T05:10:36;21.2;94.0
22676;DHT22;12521;43.310;21.876;2022-07-23T05:15:14;21.2;94.0
22676;DHT22;12521;43.310;21.876;2022-07-23T05:19:51;21.2;94.0
22676;DHT22;12521;43.310;21.876;2022-07-23T05:24:28;21.4;94.0
22676;DHT22;12521;43.310;21.876;2022-07-23T05:29:05;21.4;94.0
22676;DHT22;12521;43.310;21.876;2022-07-23T05:33:41;21.6;94.0
22676;DHT22;12521;43.310;21.876;2022-07-23T05:38:18;21.6;94.0
22676;DHT22;12521;43.310;21.876;2022-07-23T05:42:55;22.0;93.0
22676;DHT22;12521;43.310;21.876;2022-07-23T05:47:41;22.0;93.0
22676;DHT22;12521;43.310;21.876;2022-07-23T05:52:21;22.0;93.0
22676;DHT22;12521;43.310;21.876;2022-07-23T05:56:57;22.3;92.0
22676;DHT22;12521;43.310;21.876;2022-07-23T06:01:34;22.3;92.0
22676;DHT22;12521;43.310;21.876;2022-07-23T06:06:10;22.6;91.0
22676;DHT22;12521;43.310;21.876;2022-07-23T06:10:46;22.6;91.0
22676;DHT22;12521;43.310;21.876;2022-07-23T06:15:23;23.0;90.0
22676;DHT22;12521;43.310;21.876;2022-07-23T06:20:00;23.0;90.0
22676;DHT22;12521;43.310;21.876;2022-07-23T06:24:37;23.3;89.0
22676;DHT22;12521;43.310;21.876;2022-07-23T06:29:14;23.3;89.0
22676;DHT22;12521;43.310;21.876;2022-07-23T06:33:51;23.6;88.0
22676;DHT22;12521;43.310;21.876;2022-07-23T06:38:28;23.6;88.0
22676;DHT22;12521;43.310;21.876;2022-07-23T06:43:05;24.0;86.0
22676;DHT22;12521;43.310;21.876;2022-07-23T06:47:42;24.0;86.0
22676;DHT22;12521;43.310;21.876;2022-07-23T06:52:19;24.0;86.0
22676;DHT22;12521;43.310;21.876;2022-07-23T06:56:56;24.3;84.0
22676;DHT22;12521;43.310;21.876;2022-07-23T07:01:32;24.3;84.0
22676;DHT22;12521;43.310;21.876;2022-07-23T07:06:09;24.6;83.0
22676;DHT22;12521;43.310;21.876;2022-07-23T07:10:46;24.6;83.0
22676;DHT22;12521;43.310;21.876;2022-07-23T07:15:23;25.0;83.0
22676;DHT22;12521;43.310;21.876;2022-07-23T07:20:00;25.0;83.0
22676;DHT22;12521;43.310;21.876;2022-07-23T07:24:40;25.4;82.0
22676;DHT22;12521;43.310;21.876;2022-07-23T07:29:17;25.4;82.0
22676;DHT22;12521;43.310;21.876;2022-07-23T07:33:54;25.7;82.0
22676;DHT22;12521;43.310;21.876;2022-07-23T07:38:33;25.7;82.0
22676;DHT22;12521;43.310;21.876;2022-07-23T07:43:11;26.1;82.0
22676;DHT22;12521;43.310;21.876;2022-07-23T07:47:49;26.1;82.0
22676;DHT22;12521;43.310;21.876;2022-07-23T07:52:28;26.1;82.0
22676;DHT22;12521;43.310;21.876;2022-07-23T07:57:05;26.5;81.0
22676;DHT22;12521;43.310;21.876;2022-07-23T08:01:42;26.5;81.0
22676;DHT22;12521;43.310;21.876;2022-07-23T08:06:18;27.0;80.0
22676;DHT22;12521;43.310;21.876;2022-07-23T08:10:55;27.0;80.0
22676;DHT22;12521;43.310;21.876;2022-07-23T08:15:32;27.5;79.0
22676;DHT22;12521;43.310;21.876;2022-07-23T08:20:12;27.5;79.0
22676;DHT22;12521;43.310;21.876;2022-07-23T08:24:52;28.0;78.0
22676;DHT22;12521;43.310;21.876;2022-07-23T08:29:29;28.0;78.0
22676;DHT22;12521;43.310;21.876;2022-07-23T08:34:05;28.6;76.0
22676;DHT22;12521;43.310;21.876;2022-07-23T08:38:41;28.6;76.0
22676;DHT22;12521;43.310;21.876;2022-07-23T08:43:23;29.1;75.0
22676;DHT22;12521;43.310;21.876;2022-07-23T08:48:10;29.1;75.0
22676;DHT22;12521;43.310;21.876;2022-07-23T08:52:54;29.6;74.0
22676;DHT22;12521;43.310;21.876;2022-07-23T08:57:31;29.6;74.0
22676;DHT22;12521;43.310;21.876;2022-07-23T09:02:08;29.6;74.0
22676;DHT22;12521;43.310;21.876;2022-07-23T09:06:45;30.0;74.0
22676;DHT22;12521;43.310;21.876;2022-07-23T09:11:22;30.0;74.0
22676;DHT22;12521;43.310;21.876;2022-07-23T09:16:06;30.4;73.0
22676;DHT22;12521;43.310;21.876;2022-07-23T09:21:17;30.4;73.0
22676;DHT22;12521;43.310;21.876;2022-07-23T09:26:24;30.8;72.0
22676;DHT22;12521;43.310;21.876;2022-07-23T09:31:16;30.8;72.0
22676;DHT22;12521;43.310;21.876;2022-07-23T09:35:55;31.3;72.0
22676;DHT22;12521;43.310;21.876;2022-07-23T09:40:32;31.3;72.0
22676;DHT22;12521;43.310;21.876;2022-07-23T09:45:11;31.8;71.0
22676;DHT22;12521;43.310;21.876;2022-07-23T09:50:00;31.8;71.0
22676;DHT22;12521;43.310;21.876;2022-07-23T09:54:45;32.3;70.0
22676;DHT22;12521;43.310;21.876;2022-07-23T09:59:39;32.3;70.0
22676;DHT22;12521;43.310;21.876;2022-07-23T10:04:23;33.0;69.0
22676;DHT22;12521;43.310;21.876;2022-07-23T10:09:12;33.0;69.0
22676;DHT22;12521;43.310;21.876;2022-07-23T10:14:10;33.7;68.0
22676;DHT22;12521;43.310;21.876;2022-07-23T10:18:49;33.7;68.0
22676;DHT22;12521;43.310;21.876;2022-07-23T10:23:40;34.3;66.0
22676;DHT22;12521;43.310;21.876;2022-07-23T10:29:21;34.3;66.0
22676;DHT22;12521;43.310;21.876;2022-07-23T10:34:47;34.9;63.0
22676;DHT22;12521;43.310;21.876;2022-07-23T10:40:13;34.9;63.0
22676;DHT22;12521;43.310;21.876;2022-07-23T10:44:57;35.4;60.0
22676;DHT22;12521;43.310;21.876;2022-07-23T10:49:35;35.4;60.0
22676;DHT22;12521;43.310;21.876;2022-07-23T10:54:21;35.9;57.0
22676;DHT22;12521;43.310;21.876;2022-07-23T10:59:04;35.9;57.0
22676;DHT22;12521;43.310;21.876;2022-07-23T11:03:56;36.3;55.0
22676;DHT22;12521;43.310;21.876;2022-07-23T11:08:33;36.3;55.0
22676;DHT22;12521;43.310;21.876;2022-07-23T11:13:32;36.7;54.0
22676;DHT22;12521;43.310;21.876;2022-07-23T11:19:02;36.7;54.0
22676;DHT22;12521;43.310;21.876;2022-07-23T11:23:59;37.2;52.0
22676;DHT22;12521;43.310;21.876;2022-07-23T11:28:42;37.2;52.0
22676;DHT22;12521;43.310;21.876;2022-07-23T11:33:21;37.7;51.0
22676;DHT22;12521;43.310;21.876;2022-07-23T11:38:13;37.7;51.0
22676;DHT22;12521;43.310;21.876;2022-07-23T11:43:02;38.1;48.0
22676;DHT22;12521;43.310;21.876;2022-07-23T11:47:46;38.1;48.0
22676;DHT22;12521;43.310;21.876;2022-07-23T11:52:25;38.1;48.0
22676;DHT22;12521;43.310;21.876;2022-07-23T11:57:05;38.5;46.0
22676;DHT22;12521;43.310;21.876;2022-07-23T12:01:57;38.5;46.0
22676;DHT22;12521;43.310;21.876;2022-07-23T12:06:42;38.8;45.0
22676;DHT22;12521;43.310;21.876;2022-07-23T12:11:19;38.8;45.0
22676;DHT22;12521;43.310;21.876;2022-07-23T12:15:57;39.2;44.0
22676;DHT22;12521;43.310;21.876;2022-07-23T12:20:38;39.2;44.0
22676;DHT22;12521;43.310;21.876;2022-07-23T12:25:31;39.5;43.0
22676;DHT22;12521;43.310;21.876;2022-07-23T12:30:26;39.5;43.0
22676;DHT22;12521;43.310;21.876;2022-07-23T12:35:21;39.8;42.0
22676;DHT22;12521;43.310;21.876;2022-07-23T12:40:25;39.8;42.0
22676;DHT22;12521;43.310;21.876;2022-07-23T12:45:22;40.0;42.0
22676;DHT22;12521;43.310;21.876;2022-07-23T12:50:55;40.0;42.0
22676;DHT22;12521;43.310;21.876;2022-07-23T12:55:46;40.3;43.0
22676;DHT22;12521;43.310;21.876;2022-07-23T13:00:55;40.3;43.0
22676;DHT22;12521;43.310;21.876;2022-07-23T13:05:41;40.6;42.0
22676;DHT22;12521;43.310;21.876;2022-07-23T13:10:18;40.6;42.0
22676;DHT22;12521;43.310;21.876;2022-07-23T13:14:54;40.9;41.0
22676;DHT22;12521;43.310;21.876;2022-07-23T13:19:31;40.9;41.0
22676;DHT22;12521;43.310;21.876;2022-07-23T13:24:10;41.1;41.0
22676;DHT22;12521;43.310;21.876;2022-07-23T13:28:49;41.1;41.0
22676;DHT22;12521;43.310;21.876;2022-07-23T13:33:26;41.3;41.0
22676;DHT22;12521;43.310;21.876;2022-07-23T13:38:06;41.3;41.0
22676;DHT22;12521;43.310;21.876;2022-07-23T13:42:43;41.3;41.0
22676;DHT22;12521;43.310;21.876;2022-07-23T13:47:20;41.4;41.0
22676;DHT22;12521;43.310;21.876;2022-07-23T13:51:56;41.4;41.0
22676;DHT22;12521;43.310;21.876;2022-07-23T13:56:32;41.6;41.0
22676;DHT22;12521;43.310;21.876;2022-07-23T14:01:09;41.6;41.0
22676;DHT22;12521;43.310;21.876;2022-07-23T14:05:45;41.8;41.0
22676;DHT22;12521;43.310;21.876;2022-07-23T14:10:23;41.8;41.0
22676;DHT22;12521;43.310;21.876;2022-07-23T14:15:02;42.1;41.0
22676;DHT22;12521;43.310;21.876;2022-07-23T14:19:43;42.1;41.0
22676;DHT22;12521;43.310;21.876;2022-07-23T14:24:20;42.0;41.0
22676;DHT22;12521;43.310;21.876;2022-07-23T14:28:57;42.0;41.0
22676;DHT22;12521;43.310;21.876;2022-07-23T14:33:34;41.9;41.0
22676;DHT22;12521;43.310;21.876;2022-07-23T14:38:11;41.9;41.0
22676;DHT22;12521;43.310;21.876;2022-07-23T14:42:49;41.9;41.0
22676;DHT22;12521;43.310;21.876;2022-07-23T14:47:26;42.0;41.0
22676;DHT22;12521;43.310;21.876;2022-07-23T14:52:05;42.0;41.0
22676;DHT22;12521;43.310;21.876;2022-07-23T14:56:43;42.2;41.0
22676;DHT22;12521;43.310;21.876;2022-07-23T15:01:22;42.2;41.0
22676;DHT22;12521;43.310;21.876;2022-07-23T15:05:59;42.2;41.0
22676;DHT22;12521;43.310;21.876;2022-07-23T15:10:36;42.2;41.0
22676;DHT22;12521;43.310;21.876;2022-07-23T15:15:14;42.1;41.0
22676;DHT22;12521;43.310;21.876;2022-07-23T15:19:52;42.1;41.0
22676;DHT22;12521;43.310;21.876;2022-07-23T15:24:29;42.2;41.0
22676;DHT22;12521;43.310;21.876;2022-07-23T15:29:07;42.2;41.0
22676;DHT22;12521;43.310;21.876;2022-07-23T15:33:44;42.3;41.0
22676;DHT22;12521;43.310;21.876;2022-07-23T15:38:22;42.3;41.0
22676;DHT22;12521;43.310;21.876;2022-07-23T15:43:03;42.2;41.0
22676;DHT22;12521;43.310;21.876;2022-07-23T15:47:41;42.2;41.0
22676;DHT22;12521;43.310;21.876;2022-07-23T15:52:18;42.2;41.0
22676;DHT22;12521;43.310;21.876;2022-07-23T15:56:56;42.2;42.0
22676;DHT22;12521;43.310;21.876;2022-07-23T16:01:33;42.2;42.0
22676;DHT22;12521;43.310;21.876;2022-07-23T16:06:11;42.0;42.0
22676;DHT22;12521;43.310;21.876;2022-07-23T16:10:47;42.0;42.0
22676;DHT22;12521;43.310;21.876;2022-07-23T16:15:25;41.8;42.0
22676;DHT22;12521;43.310;21.876;2022-07-23T16:20:04;41.8;42.0
22676;DHT22;12521;43.310;21.876;2022-07-23T16:24:46;42.4;41.0
22676;DHT22;12521;43.310;21.876;2022-07-23T16:29:22;42.4;41.0
22676;DHT22;12521;43.310;21.876;2022-07-23T16:33:59;43.1;41.0
22676;DHT22;12521;43.310;21.876;2022-07-23T16:38:37;43.1;41.0
22676;DHT22;12521;43.310;21.876;2022-07-23T16:43:15;43.7;41.0
22676;DHT22;12521;43.310;21.876;2022-07-23T16:47:51;43.7;41.0
22676;DHT22;12521;43.310;21.876;2022-07-23T16:52:28;43.7;41.0
22676;DHT22;12521;43.310;21.876;2022-07-23T16:57:05;44.3;41.0
22676;DHT22;12521;43.310;21.876;2022-07-23T17:01:42;44.3;41.0
22676;DHT22;12521;43.310;21.876;2022-07-23T17:06:19;44.0;41.0
22676;DHT22;12521;43.310;21.876;2022-07-23T17:10:56;44.0;41.0
22676;DHT22;12521;43.310;21.876;2022-07-23T17:15:34;43.6;42.0
22676;DHT22;12521;43.310;21.876;2022-07-23T17:20:12;43.6;42.0
22676;DHT22;12521;43.310;21.876;2022-07-23T17:24:52;42.2;43.0
22676;DHT22;12521;43.310;21.876;2022-07-23T17:29:29;42.2;43.0
22676;DHT22;12521;43.310;21.876;2022-07-23T17:34:07;40.9;44.0
22676;DHT22;12521;43.310;21.876;2022-07-23T17:38:45;40.9;44.0
22676;DHT22;12521;43.310;21.876;2022-07-23T17:43:24;38.8;47.0
22676;DHT22;12521;43.310;21.876;2022-07-23T17:48:02;38.8;47.0
22676;DHT22;12521;43.310;21.876;2022-07-23T17:52:49;38.8;47.0
22676;DHT22;12521;43.310;21.876;2022-07-23T17:57:34;36.8;50.0
22676;DHT22;12521;43.310;21.876;2022-07-23T18:02:12;36.8;50.0
22676;DHT22;12521;43.310;21.876;2022-07-23T18:06:49;35.8;52.0
22676;DHT22;12521;43.310;21.876;2022-07-23T18:11:27;35.8;52.0
22676;DHT22;12521;43.310;21.876;2022-07-23T18:16:05;34.7;54.0
22676;DHT22;12521;43.310;21.876;2022-07-23T18:20:43;34.7;54.0
22676;DHT22;12521;43.310;21.876;2022-07-23T18:25:23;34.0;56.0
22676;DHT22;12521;43.310;21.876;2022-07-23T18:30:00;34.0;56.0
22676;DHT22;12521;43.310;21.876;2022-07-23T18:34:43;33.3;57.0
22676;DHT22;12521;43.310;21.876;2022-07-23T18:39:20;33.3;57.0
22676;DHT22;12521;43.310;21.876;2022-07-23T18:43:58;32.8;58.0
22676;DHT22;12521;43.310;21.876;2022-07-23T18:48:36;32.8;58.0
22676;DHT22;12521;43.310;21.876;2022-07-23T18:53:13;32.4;58.0
22676;DHT22;12521;43.310;21.876;2022-07-23T18:57:49;32.4;58.0
22676;DHT22;12521;43.310;21.876;2022-07-23T19:02:26;32.4;58.0
22676;DHT22;12521;43.310;21.876;2022-07-23T19:07:03;32.0;60.0
22676;DHT22;12521;43.310;21.876;2022-07-23T19:11:40;32.0;60.0
22676;DHT22;12521;43.310;21.876;2022-07-23T19:16:16;31.5;61.0
22676;DHT22;12521;43.310;21.876;2022-07-23T19:20:52;31.5;61.0
22676;DHT22;12521;43.310;21.876;2022-07-23T19:25:31;31.0;63.0
22676;DHT22;12521;43.310;21.876;2022-07-23T19:30:10;31.0;63.0
22676;DHT22;12521;43.310;21.876;2022-07-23T19:34:48;30.6;65.0
22676;DHT22;12521;43.310;21.876;2022-07-23T19:39:25;30.6;65.0
22676;DHT22;12521;43.310;21.876;2022-07-23T19:44:03;30.2;65.0
22676;DHT22;12521;43.310;21.876;2022-07-23T19:48:40;30.2;65.0
22676;DHT22;12521;43.310;21.876;2022-07-23T19:53:16;29.7;66.0
22676;DHT22;12521;43.310;21.876;2022-07-23T19:57:54;29.7;66.0
22676;DHT22;12521;43.310;21.876;2022-07-23T20:02:31;29.7;66.0
22676;DHT22;12521;43.310;21.876;2022-07-23T20:07:09;29.4;66.0
22676;DHT22;12521;43.310;21.876;2022-07-23T20:11:46;29.4;66.0
22676;DHT22;12521;43.310;21.876;2022-07-23T20:16:25;29.2;67.0
22676;DHT22;12521;43.310;21.876;2022-07-23T20:21:04;29.2;67.0
22676;DHT22;12521;43.310;21.876;2022-07-23T20:25:42;29.0;67.0
22676;DHT22;12521;43.310;21.876;2022-07-23T20:30:19;29.0;67.0
22676;DHT22;12521;43.310;21.876;2022-07-23T20:34:56;28.7;68.0
22676;DHT22;12521;43.310;21.876;2022-07-23T20:39:33;28.7;68.0
22676;DHT22;12521;43.310;21.876;2022-07-23T20:44:11;28.4;68.0
22676;DHT22;12521;43.310;21.876;2022-07-23T20:48:48;28.4;68.0
22676;DHT22;12521;43.310;21.876;2022-07-23T20:53:26;28.0;67.0
22676;DHT22;12521;43.310;21.876;2022-07-23T20:58:04;28.0;67.0
22676;DHT22;12521;43.310;21.876;2022-07-23T21:02:42;28.0;67.0
22676;DHT22;12521;43.310;21.876;2022-07-23T21:07:20;27.7;68.0
22676;DHT22;12521;43.310;21.876;2022-07-23T21:11:58;27.7;68.0
22676;DHT22;12521;43.310;21.876;2022-07-23T21:16:35;27.4;68.0
22676;DHT22;12521;43.310;21.876;2022-07-23T21:21:12;27.4;68.0
22676;DHT22;12521;43.310;21.876;2022-07-23T21:25:48;27.0;69.0
22676;DHT22;12521;43.310;21.876;2022-07-23T21:30:25;27.0;69.0
22676;DHT22;12521;43.310;21.876;2022-07-23T21:35:03;26.7;70.0
22676;DHT22;12521;43.310;21.876;2022-07-23T21:39:45;26.7;70.0
22676;DHT22;12521;43.310;21.876;2022-07-23T21:44:21;26.5;70.0
22676;DHT22;12521;43.310;21.876;2022-07-23T21:48:58;26.5;70.0
22676;DHT22;12521;43.310;21.876;2022-07-23T21:53:36;26.3;70.0
22676;DHT22;12521;43.310;21.876;2022-07-23T21:58:12;26.3;70.0
22676;DHT22;12521;43.310;21.876;2022-07-23T22:02:49;26.3;70.0
22676;DHT22;12521;43.310;21.876;2022-07-23T22:07:25;26.2;71.0
22676;DHT22;12521;43.310;21.876;2022-07-23T22:12:03;26.2;71.0
22676;DHT22;12521;43.310;21.876;2022-07-23T22:16:43;26.1;72.0
22676;DHT22;12521;43.310;21.876;2022-07-23T22:21:19;26.1;72.0
22676;DHT22;12521;43.310;21.876;2022-07-23T22:25:56;26.0;72.0
22676;DHT22;12521;43.310;21.876;2022-07-23T22:30:33;26.0;72.0
22676;DHT22;12521;43.310;21.876;2022-07-23T22:35:11;25.9;73.0
22676;DHT22;12521;43.310;21.876;2022-07-23T22:39:51;25.9;73.0
22676;DHT22;12521;43.310;21.876;2022-07-23T22:44:28;25.8;74.0
22676;DHT22;12521;43.310;21.876;2022-07-23T22:49:05;25.8;74.0
22676;DHT22;12521;43.310;21.876;2022-07-23T22:53:42;25.8;75.0
22676;DHT22;12521;43.310;21.876;2022-07-23T22:58:20;25.8;75.0
22676;DHT22;12521;43.310;21.876;2022-07-23T23:02:58;25.8;75.0
22676;DHT22;12521;43.310;21.876;2022-07-23T23:07:35;25.7;76.0
22676;DHT22;12521;43.310;21.876;2022-07-23T23:12:12;25.7;76.0
22676;DHT22;12521;43.310;21.876;2022-07-23T23:16:49;25.6;76.0
22676;DHT22;12521;43.310;21.876;2022-07-23T23:21:28;25.6;76.0
22676;DHT22;12521;43.310;21.876;2022-07-23T23:26:05;25.5;76.0
22676;DHT22;12521;43.310;21.876;2022-07-23T23:30:42;25.5;76.0
22676;DHT22;12521;43.310;21.876;2022-07-23T23:35:20;25.4;77.0
22676;DHT22;12521;43.310;21.876;2022-07-23T23:39:58;25.4;77.0
22676;DHT22;12521;43.310;21.876;2022-07-23T23:44:35;25.3;77.0
22676;DHT22;12521;43.310;21.876;2022-07-23T23:49:12;25.3;77.0
22676;DHT22;12521;43.310;21.876;2022-07-23T23:53:48;25.2;77.0
22676;DHT22;12521;43.310;21.876;2022-07-23T23:58:25;25.2;77.0
